Map

Track Data

SID SEASON NUMBER BASIN SUBBASIN NAME ISO_TIME NATURE LAT LON WMO_WIND WMO_PRES WMO_AGENCY TRACK_TYPE DIST2LAND LANDFALL IFLAG USA_AGENCY USA_ATCF_ID USA_LAT USA_LON USA_RECORD USA_STATUS USA_WIND USA_PRES USA_SSHS USA_R34_NE USA_R34_SE USA_R34_SW USA_R34_NW USA_R50_NE USA_R50_SE USA_R50_SW USA_R50_NW USA_R64_NE USA_R64_SE USA_R64_SW USA_R64_NW USA_POCI USA_ROCI USA_RMW USA_EYE TOKYO_LAT TOKYO_LON TOKYO_GRADE TOKYO_WIND TOKYO_PRES TOKYO_R50_DIR TOKYO_R50_LONG TOKYO_R50_SHORT TOKYO_R30_DIR TOKYO_R30_LONG TOKYO_R30_SHORT TOKYO_LAND CMA_LAT CMA_LON CMA_CAT CMA_WIND CMA_PRES HKO_LAT HKO_LON HKO_CAT HKO_WIND HKO_PRES NEWDELHI_LAT NEWDELHI_LON NEWDELHI_GRADE NEWDELHI_WIND NEWDELHI_PRES NEWDELHI_CI NEWDELHI_DP NEWDELHI_POCI REUNION_LAT REUNION_LON REUNION_TYPE REUNION_WIND REUNION_PRES REUNION_TNUM REUNION_CI REUNION_RMW REUNION_R34_NE REUNION_R34_SE REUNION_R34_SW REUNION_R34_NW REUNION_R50_NE REUNION_R50_SE REUNION_R50_SW REUNION_R50_NW REUNION_R64_NE REUNION_R64_SE REUNION_R64_SW REUNION_R64_NW BOM_LAT BOM_LON BOM_TYPE BOM_WIND BOM_PRES BOM_TNUM BOM_CI BOM_RMW BOM_R34_NE BOM_R34_SE BOM_R34_SW BOM_R34_NW BOM_R50_NE BOM_R50_SE BOM_R50_SW BOM_R50_NW BOM_R64_NE BOM_R64_SE BOM_R64_SW BOM_R64_NW BOM_ROCI BOM_POCI BOM_EYE BOM_POS_METHOD BOM_PRES_METHOD NADI_LAT NADI_LON NADI_CAT NADI_WIND NADI_PRES WELLINGTON_LAT WELLINGTON_LON WELLINGTON_WIND WELLINGTON_PRES DS824_LAT DS824_LON DS824_STAGE DS824_WIND DS824_PRES TD9636_LAT TD9636_LON TD9636_STAGE TD9636_WIND TD9636_PRES TD9635_LAT TD9635_LON TD9635_WIND TD9635_PRES TD9635_ROCI NEUMANN_LAT NEUMANN_LON NEUMANN_CLASS NEUMANN_WIND NEUMANN_PRES MLC_LAT MLC_LON MLC_CLASS MLC_WIND MLC_PRES USA_GUST BOM_GUST BOM_GUST_PER REUNION_GUST REUNION_GUST_PER USA_SEAHGT USA_SEARAD_NE USA_SEARAD_SE USA_SEARAD_SW USA_SEARAD_NW STORM_SPEED STORM_DIR
1969273N24275 1969 93 NA GM NOT_NAMED 1969-09-29 12:00:00 SS 23.5000 -85.5000 30 1004 hurdat_atl main 173 173 O_____________ hurdat_atl AL231969 23.5000 -85.5000 SD 30 1004 -2 5 342
1969273N24275 1969 93 NA GM NOT_NAMED 1969-09-29 15:00:00 SS 23.7500 -85.5875 main 196 196 P_____________ AL231969 23.7500 -85.5875 SD 32 1003 -2 5 340
1969273N24275 1969 93 NA GM NOT_NAMED 1969-09-29 18:00:00 SS 24.0000 -85.7000 35 1002 hurdat_atl main 226 226 O_____________ hurdat_atl AL231969 24.0000 -85.7000 SS 35 1002 -2 6 334
1969273N24275 1969 93 NA GM NOT_NAMED 1969-09-29 21:00:00 SS 24.2500 -85.8500 main 256 256 P_____________ AL231969 24.2500 -85.8500 SS 37 1002 -2 6 331
1969273N24275 1969 93 NA GM NOT_NAMED 1969-09-30 00:00:00 SS 24.5000 -86.0000 40 1002 hurdat_atl main 286 286 O_____________ hurdat_atl AL231969 24.5000 -86.0000 SS 40 1002 -2 6 335
1969273N24275 1969 93 NA GM NOT_NAMED 1969-09-30 03:00:00 SS 24.7500 -86.1076 main 309 309 P_____________ AL231969 24.7500 -86.1076 SS 40 1002 -2 5 340
1969273N24275 1969 93 NA GM NOT_NAMED 1969-09-30 06:00:00 SS 25.0000 -86.2000 40 1002 hurdat_atl main 340 340 O_____________ hurdat_atl AL231969 25.0000 -86.2000 SS 40 1002 -2 5 340
1969273N24275 1969 93 NA GM NOT_NAMED 1969-09-30 09:00:00 SS 25.2350 -86.3075 main 364 364 P_____________ AL231969 25.2350 -86.3075 SS 42 1001 -2 5 340
1969273N24275 1969 93 NA GM NOT_NAMED 1969-09-30 12:00:00 SS 25.5000 -86.4000 45 1000 hurdat_atl main 396 396 O_____________ hurdat_atl AL231969 25.5000 -86.4000 SS 45 1000 -2 6 347
1969273N24275 1969 93 NA GM NOT_NAMED 1969-09-30 15:00:00 SS 25.8350 -86.4576 main 422 403 P_____________ AL231969 25.8350 -86.4576 SS 47 999 -2 7 353
1969273N24275 1969 93 NA GM NOT_NAMED 1969-09-30 18:00:00 SS 26.2000 -86.5000 50 hurdat_atl main 403 371 I_____________ hurdat_atl AL231969 26.2000 -86.5000 SS 50 998 -2 7 353
1969273N24275 1969 93 NA GM NOT_NAMED 1969-09-30 21:00:00 SS 26.5275 -86.5575 main 371 333 P_____________ AL231969 26.5275 -86.5575 SS 50 997 -2 7 353
1969273N24275 1969 93 NA GM NOT_NAMED 1969-10-01 00:00:00 SS 26.9000 -86.6000 50 996 hurdat_atl main 333 292 O_____________ hurdat_atl AL231969 26.9000 -86.6000 SS 50 996 -2 8 358
1969273N24275 1969 93 NA GM NOT_NAMED 1969-10-01 03:00:00 SS 27.3550 -86.6002 main 282 232 P_____________ AL231969 27.3550 -86.6002 SS 50 995 -2 10 1
1969273N24275 1969 93 NA GM NOT_NAMED 1969-10-01 06:00:00 SS 27.9000 -86.6000 50 995 hurdat_atl main 232 186 O_____________ hurdat_atl AL231969 27.9000 -86.6000 SS 50 995 -2 11 358
1969273N24275 1969 93 NA GM NOT_NAMED 1969-10-01 09:00:00 SS 28.4831 -86.6384 main 177 131 P_____________ AL231969 28.4831 -86.6384 SS 47 995 -2 13 356
1969273N24275 1969 93 NA GM NOT_NAMED 1969-10-01 12:00:00 SS 29.2000 -86.7000 45 995 hurdat_atl main 131 33 O_____________ hurdat_atl AL231969 29.2000 -86.7000 SS 45 995 -2 17 356
1969273N24275 1969 93 NA GM NOT_NAMED 1969-10-01 15:00:00 SS 30.1313 -86.7840 main 33 0 P_____________ AL231969 30.1313 -86.7840 SS 41 998 -2 18 356
1969273N24275 1969 93 NA GM NOT_NAMED 1969-10-01 16:00:00 SS 30.4000 -86.8000 40 999 hurdat_atl main 0 0 O_____________ hurdat_atl AL231969 30.4000 -86.8000 L SS 40 999 -2 13 358
1969273N24275 1969 93 NA NA NOT_NAMED 1969-10-01 18:00:00 SS 30.8000 -86.8000 35 999 hurdat_atl main 0 0 O_____________ hurdat_atl AL231969 30.8000 -86.8000 SS 35 999 -2 17 358
1969273N24275 1969 93 NA NA NOT_NAMED 1969-10-01 21:00:00 SS 31.7773 -86.8506 main 0 0 P_____________ AL231969 31.7773 -86.8506 SS 30 1000 -2 22 358
1969273N24275 1969 93 NA NA NOT_NAMED 1969-10-02 00:00:00 SS 33.0000 -86.9000 25 1001 hurdat_atl main 0 0 O_____________ hurdat_atl AL231969 33.0000 -86.9000 SD 25 1001 -2 23 359
1969273N24275 1969 93 NA NA NOT_NAMED 1969-10-02 03:00:00 SS 34.1123 -86.9154 main 0 0 P_____________ AL231969 34.1123 -86.9154 SD 22 1002 -2 23 2
1969273N24275 1969 93 NA NA NOT_NAMED 1969-10-02 06:00:00 SS 35.3000 -86.8000 20 1003 hurdat_atl main 0 0 O_____________ hurdat_atl AL231969 35.3000 -86.8000 SD 20 1003 -2 25 7
1969273N24275 1969 93 NA NA NOT_NAMED 1969-10-02 09:00:00 SS 36.6339 -86.5394 main 0 0 P_____________ AL231969 36.6339 -86.5394 SD 20 -2 28 13
1969273N24275 1969 93 NA NA NOT_NAMED 1969-10-02 12:00:00 SS 38.0000 -86.0000 20 hurdat_atl main 0 0 O_____________ hurdat_atl AL231969 38.0000 -86.0000 SD 20 -2 30 22
1969273N24275 1969 93 NA NA NOT_NAMED 1969-10-02 15:00:00 SS 39.4008 -85.0969 main 0 0 P_____________ AL231969 39.4008 -85.0969 SD 20 -2 29 32
1969273N24275 1969 93 NA NA NOT_NAMED 1969-10-02 18:00:00 SS 40.5000 -84.0000 20 hurdat_atl main 0 0 O_____________ hurdat_atl AL231969 40.5000 -84.0000 SD 20 -2 23 45
1969273N24275 1969 93 NA NA NOT_NAMED 1969-10-02 21:00:00 SS 41.0255 -82.9647 main 0 0 P_____________ AL231969 41.0255 -82.9647 SD 20 -2 17 65
1969273N24275 1969 93 NA NA NOT_NAMED 1969-10-03 00:00:00 SS 41.2000 -82.0000 20 hurdat_atl main 0 O_____________ hurdat_atl AL231969 41.2000 -82.0000 SD 20 -2 15 76

About IBTrACS Database

This database is a web-friendly format of International Best Track Archive for Climate Stewardship (IBTrACS), a global best track data archive curated by NOAA dating back to 1842.

Updated: 2022-10-05